Metar z pełnej godziny Komunikat METAR ze strony awiacja.imgw.pl Metar G00 EPZG METAR EPZG 230900Z 27009KT 240V310 9999 SCT024 BKN044 07/02 Q1023 =